Pickering, Missouri
Current Conditions -  °F | °C
As of 1:55 PM on Friday 24 Oct 2014 (Local Time) from KICL Reporting Station
Clear Clear  
Wind Chill: 72°   Ceiling: Unl
Heat Index: 72°   Visibility: 10mi
Dew Point: 63°   Wind: 13mph
Humidity: 73%   Direction: 200°SSW
Pressure: 29.93"   Gusts: NA
Location:  40.45°N, 94.84°W
Report Text: KICL 241855Z AUTO 20011KT 10SM CLR 22/17 A2993 RMK AO2
Loading
Personal Weather Stations






























Interactive Weather Map
Tropical Storm Tracking
New forecast layout! Learn more

10-Day Weather Forecast

Advertisements
Track Severe Weather on mobile